Time;durP1;ratioP1;P1;durP2;ratioP2;P2;SDS_P1;SDS_P2;PMS_P1;PMS_P2;Temp;Humidity;BMP_temperature;BMP_pressure;BME280_temperature;BME280_humidity;BME280_pressure;Samples;Min_cycle;Max_cycle;Signal;HPM_P1;HPM_P2
2023/04/23 00:00:32;;;;;;;7.82;4.15;;;13.40;99.90;;;13.59;100.00;100240.16;5149662;28;20508;-79
2023/04/23 00:03:09;;;;;;;7.30;4.00;;;13.40;99.90;;;13.60;100.00;100247.16;5148610;28;20051;-79
2023/04/23 00:05:42;;;;;;;7.80;4.40;;;13.40;99.90;;;13.58;100.00;100243.66;5149862;28;20472;-82
2023/04/23 00:08:18;;;;;;;8.35;4.72;;;13.40;99.90;;;13.59;100.00;100245.41;5151968;28;20047;-80
2023/04/23 00:10:51;;;;;;;7.15;4.03;;;13.40;99.90;;;13.59;100.00;100240.16;5148145;28;20039;-80
2023/04/23 00:13:25;;;;;;;9.07;4.60;;;13.40;99.90;;;13.57;100.00;100241.91;5149023;28;20509;-81
2023/04/23 00:15:58;;;;;;;7.97;4.30;;;13.40;99.90;;;13.54;100.00;100242.72;5165410;28;20094;-80
2023/04/23 00:18:30;;;;;;;6.97;4.38;;;13.40;99.90;;;13.53;100.00;100234.84;5149566;28;20051;-80
2023/04/23 00:21:02;;;;;;;8.05;4.75;;;13.40;99.90;;;13.52;100.00;100238.31;5148936;28;20117;-80
2023/04/23 00:23:34;;;;;;;9.02;4.95;;;13.30;99.90;;;13.52;100.00;100243.56;5148636;28;20038;-81
2023/04/23 00:26:06;;;;;;;10.20;5.68;;;13.30;99.90;;;13.51;100.00;100236.56;5151803;28;20047;-79
2023/04/23 00:28:40;;;;;;;10.35;5.57;;;13.30;99.90;;;13.49;100.00;100227.78;5149154;28;20528;-80
2023/04/23 00:31:12;;;;;;;8.32;4.88;;;13.30;99.90;;;13.48;100.00;100232.16;5148885;28;20046;-81
2023/04/23 00:33:45;;;;;;;7.63;4.50;;;13.30;99.90;;;13.48;100.00;100232.16;5148251;28;20098;-80
2023/04/23 00:36:17;;;;;;;9.23;4.50;;;13.30;99.90;;;13.48;100.00;100226.03;5149500;28;20050;-80
2023/04/23 00:38:49;;;;;;;8.95;4.90;;;13.30;99.90;;;13.48;100.00;100229.53;5150840;28;20049;-82
2023/04/23 00:41:21;;;;;;;7.45;4.40;;;13.30;99.90;;;13.48;100.00;100226.91;5157143;28;20053;-82
2023/04/23 00:43:56;;;;;;;8.73;4.60;;;13.30;99.90;;;13.47;100.00;100229.53;5149166;28;20051;-80
2023/04/23 00:46:28;;;;;;;9.55;4.68;;;13.30;99.90;;;13.48;100.00;100236.50;5149945;28;20035;-80
2023/04/23 00:49:00;;;;;;;9.25;5.13;;;13.30;99.90;;;13.46;100.00;100227.78;5149068;28;20102;-79
2023/04/23 00:51:32;;;;;;;8.52;4.53;;;13.30;99.90;;;13.43;100.00;100225.09;5148880;28;20043;-82
2023/04/23 00:54:05;;;;;;;11.23;6.10;;;13.30;99.90;;;13.42;100.00;100220.72;5148182;28;20101;-81
2023/04/23 00:56:37;;;;;;;12.18;6.47;;;13.20;99.90;;;13.41;100.00;100216.34;5149360;28;20528;-84
2023/04/23 00:59:11;;;;;;;10.38;5.95;;;13.20;99.90;;;13.39;100.00;100225.94;5149304;28;20049;-83
2023/04/23 01:01:44;;;;;;;12.90;7.20;;;13.20;99.90;;;13.37;100.00;100227.66;5148371;28;20043;-80
2023/04/23 01:04:18;;;;;;;11.70;5.93;;;13.20;99.90;;;13.35;100.00;100224.97;5149369;28;20140;-80
2023/04/23 01:06:50;;;;;;;10.65;5.70;;;13.20;99.90;;;13.36;100.00;100231.09;5149092;28;20050;-81
2023/04/23 01:09:23;;;;;;;9.73;5.82;;;13.20;99.90;;;13.34;100.00;100227.59;5147158;28;20051;-80
2023/04/23 01:11:57;;;;;;;12.00;6.20;;;13.20;99.90;;;13.26;100.00;100220.50;5147480;28;20085;-82
2023/04/23 01:14:31;;;;;;;10.48;5.70;;;13.10;99.90;;;13.26;100.00;100215.28;5148221;28;20046;-81
2023/04/23 01:17:03;;;;;;;7.97;4.63;;;13.10;99.90;;;13.23;100.00;100219.56;5149933;28;20047;-81
2023/04/23 01:19:36;;;;;;;13.50;6.75;;;13.10;99.90;;;13.21;100.00;100222.16;5148502;28;20043;-82
2023/04/23 01:22:12;;;;;;;10.13;5.00;;;13.10;99.90;;;13.19;100.00;100225.59;5148759;28;20043;-82
2023/04/23 01:24:44;;;;;;;9.05;5.13;;;13.00;99.90;;;13.18;100.00;100222.09;5156235;28;20035;-80
2023/04/23 01:27:18;;;;;;;8.65;5.15;;;13.00;99.90;;;13.17;100.00;100219.44;5147608;28;20482;-80
2023/04/23 01:29:50;;;;;;;10.80;5.82;;;13.00;99.90;;;13.11;100.00;100217.63;5150157;28;20102;-80
2023/04/23 01:32:23;;;;;;;10.95;5.57;;;12.90;99.90;;;13.08;100.00;100220.19;5150769;28;20067;-81
2023/04/23 01:34:57;;;;;;;10.63;5.95;;;12.90;99.90;;;13.06;100.00;100221.91;5149461;28;20047;-81
2023/04/23 01:37:32;;;;;;;13.85;6.93;;;12.90;99.90;;;12.98;100.00;100219.19;5148059;28;20046;-81
2023/04/23 01:40:06;;;;;;;12.00;5.85;;;12.80;99.90;;;12.96;100.00;100220.00;5142318;28;20113;-80
2023/04/23 01:42:39;;;;;;;15.50;8.30;;;12.80;99.90;;;12.93;100.00;100225.19;5148339;28;20057;-81
2023/04/23 01:45:12;;;;;;;11.15;5.88;;;12.80;99.90;;;12.91;100.00;100221.66;5148588;28;20472;-81
2023/04/23 01:47:44;;;;;;;12.02;6.10;;;12.70;99.90;;;12.92;100.00;100228.66;5148076;28;20050;-82
2023/04/23 01:50:16;;;;;;;10.77;5.88;;;12.70;99.90;;;12.89;100.00;100220.75;5148818;28;20419;-78
2023/04/23 01:52:49;;;;;;;12.95;7.40;;;12.80;99.90;;;12.87;100.00;100217.25;5149157;28;20050;-81
2023/04/23 01:55:22;;;;;;;15.05;7.63;;;12.70;99.90;;;12.83;100.00;100223.25;5152106;28;20066;-82
2023/04/23 01:57:54;;;;;;;13.10;7.22;;;12.70;99.90;;;12.79;100.00;100217.13;5147826;28;20508;-81
2023/04/23 02:00:26;;;;;;;13.52;7.05;;;12.60;99.90;;;12.77;100.00;100224.91;5147083;28;20047;-84
2023/04/23 02:03:00;;;;;;;15.10;7.43;;;12.60;99.90;;;12.74;100.00;100219.66;5146986;28;20089;-83
2023/04/23 02:05:35;;;;;;;14.98;7.30;;;12.60;99.90;;;12.72;100.00;100226.59;5152921;28;20058;-81
2023/04/23 02:08:09;;;;;;;15.13;7.32;;;12.60;99.90;;;12.65;100.00;100224.75;5147492;28;20046;-82
2023/04/23 02:10:42;;;;;;;12.90;6.90;;;12.60;99.90;;;12.65;100.00;100221.22;5147680;28;20050;-82
2023/04/23 02:13:14;;;;;;;16.60;9.13;;;12.60;99.90;;;12.59;100.00;100224.63;5147193;28;20042;-82
2023/04/23 02:15:47;;;;;;;16.38;8.98;;;12.60;99.90;;;12.54;100.00;100217.56;5147281;28;20034;-82
2023/04/23 02:18:19;;;;;;;20.33;9.82;;;12.40;99.90;;;12.54;100.00;100221.03;5146552;28;20142;-82
2023/04/23 02:20:51;;;;;;;15.45;8.20;;;12.40;99.90;;;12.55;100.00;100212.34;5146850;28;20125;-82
2023/04/23 02:23:24;;;;;;;18.35;9.73;;;12.40;99.90;;;12.53;100.00;100213.19;5147488;28;20050;-82
2023/04/23 02:25:57;;;;;;;16.25;8.32;;;12.40;99.90;;;12.53;100.00;100213.19;5135702;28;20047;-82
2023/04/23 02:28:30;;;;;;;20.88;9.55;;;12.40;99.90;;;12.50;100.00;100219.22;5147680;28;20065;-81
2023/04/23 02:31:02;;;;;;;19.42;9.32;;;12.40;99.90;;;12.49;100.00;100217.47;5147317;28;20047;-81
2023/04/23 02:33:35;;;;;;;15.52;8.10;;;12.40;99.90;;;12.48;100.00;100216.59;5148004;28;20134;-80
2023/04/23 02:36:09;;;;;;;17.20;8.85;;;12.40;99.90;;;12.45;100.00;100218.25;5150686;28;20042;-80
2023/04/23 02:38:44;;;;;;;17.73;9.38;;;12.40;99.90;;;12.43;100.00;100215.63;5150671;28;20046;-80
2023/04/23 02:41:16;;;;;;;15.43;8.43;;;12.40;99.90;;;12.43;100.00;100218.22;5151518;28;20102;-80
2023/04/23 02:43:48;;;;;;;18.95;9.38;;;12.30;99.90;;;12.43;100.00;100214.75;5150597;28;20046;-80
2023/04/23 02:46:20;;;;;;;16.98;8.57;;;12.30;99.90;;;12.41;100.00;100203.38;5151329;28;20054;-79
2023/04/23 02:48:52;;;;;;;15.77;7.57;;;12.30;99.90;;;12.40;100.00;100199.00;5150804;28;20051;-81
2023/04/23 02:51:25;;;;;;;14.65;7.35;;;12.30;99.90;;;12.39;100.00;100203.38;5150102;28;20581;-81
2023/04/23 02:53:58;;;;;;;14.05;6.97;;;12.30;99.90;;;12.38;100.00;100203.31;5141753;28;20053;-78
2023/04/23 02:56:30;;;;;;;17.17;8.32;;;12.30;99.90;;;12.36;100.00;100199.81;5150306;28;20062;-80
2023/04/23 02:59:03;;;;;;;16.75;8.88;;;12.30;99.90;;;12.33;100.00;100202.38;5150100;28;20078;-80
2023/04/23 03:01:35;;;;;;;24.17;10.63;;;12.20;99.90;;;12.29;100.00;100203.16;5150653;28;20378;-79
2023/04/23 03:04:08;;;;;;;21.58;10.57;;;12.20;99.90;;;12.25;100.00;100206.56;5150540;28;20050;-79
2023/04/23 03:06:40;;;;;;;18.30;9.52;;;12.20;99.90;;;12.22;100.00;100200.44;5150924;28;20043;-81
2023/04/23 03:09:15;;;;;;;19.05;8.90;;;12.10;99.90;;;12.20;100.00;100194.31;5149703;28;20039;-81
2023/04/23 03:11:48;;;;;;;18.10;9.00;;;12.10;99.90;;;12.19;100.00;100189.03;5151124;28;20121;-80
2023/04/23 03:14:20;;;;;;;15.65;8.45;;;12.10;99.90;;;12.14;100.00;100194.19;5150066;28;20509;-81
2023/04/23 03:16:52;;;;;;;15.27;7.20;;;12.00;99.90;;;12.12;100.00;100190.63;5150617;28;20351;-82
2023/04/23 03:19:24;;;;;;;15.00;8.00;;;12.00;99.90;;;12.10;100.00;100187.13;5150575;28;20492;-82
2023/04/23 03:21:57;;;;;;;15.57;7.70;;;12.00;99.90;;;12.09;100.00;100185.38;5150956;28;20424;-84
2023/04/23 03:24:31;;;;;;;15.32;7.70;;;12.00;99.90;;;12.07;100.00;100197.53;5150962;28;20098;-82
2023/04/23 03:27:03;;;;;;;13.90;7.82;;;11.90;99.90;;;12.06;100.00;100192.25;5150404;28;20493;-82
2023/04/23 03:29:36;;;;;;;14.07;7.65;;;12.00;99.90;;;12.06;100.00;100198.41;5150721;28;20145;-82
2023/04/23 03:32:08;;;;;;;13.95;7.85;;;11.90;99.90;;;12.09;100.00;100200.16;5151365;28;20516;-83
2023/04/23 03:34:40;;;;;;;13.60;7.18;;;11.90;99.90;;;12.06;100.00;100193.16;5151074;28;20043;-82
2023/04/23 03:37:13;;;;;;;15.15;7.78;;;11.90;99.90;;;12.06;100.00;100198.41;5151159;28;20068;-81
2023/04/23 03:39:50;;;;;;;13.55;7.15;;;11.90;99.90;;;12.07;100.00;100192.31;5168808;23;20161;-81
2023/04/23 03:42:23;;;;;;;17.33;8.60;;;11.90;99.90;;;12.08;100.00;100199.28;5163599;28;20046;-81
2023/04/23 03:44:59;;;;;;;16.02;8.00;;;11.90;99.90;;;12.10;100.00;100191.47;5146409;28;20577;-80
2023/04/23 03:47:32;;;;;;;18.95;10.02;;;11.90;99.90;;;12.09;100.00;100187.97;5163395;28;20050;-80
2023/04/23 03:50:08;;;;;;;17.80;9.15;;;12.00;99.90;;;12.10;100.00;100181.03;5163271;28;20053;-80
2023/04/23 03:52:44;;;;;;;16.40;8.25;;;12.00;99.90;;;12.11;100.00;100186.28;5146994;28;20399;-80
2023/04/23 03:55:25;;;;;;;19.08;9.73;;;12.00;99.90;;;12.10;100.00;100181.03;5148904;28;20053;-81
2023/04/23 03:58:00;;;;;;;19.17;10.00;;;12.00;99.90;;;12.09;100.00;100180.16;5163683;28;20133;-81
2023/04/23 04:00:37;;;;;;;17.70;8.25;;;12.00;99.90;;;12.11;100.00;100180.16;5179440;28;20566;-80
2023/04/23 04:03:09;;;;;;;14.82;8.15;;;12.00;99.90;;;12.14;100.00;100183.72;5164926;28;20511;-80
2023/04/23 04:05:43;;;;;;;15.23;8.05;;;12.10;99.90;;;12.17;100.00;100181.16;5163401;28;20158;-80
2023/04/23 04:08:15;;;;;;;16.98;8.55;;;12.10;99.90;;;12.20;100.00;100182.97;5144064;28;20142;-80
2023/04/23 04:10:49;;;;;;;14.55;6.85;;;12.10;99.90;;;12.23;100.00;100178.66;5161815;28;20050;-80
2023/04/23 04:13:25;;;;;;;12.40;6.22;;;12.10;99.90;;;12.28;100.00;100175.28;5163103;28;20038;-79
2023/04/23 04:15:57;;;;;;;15.25;7.70;;;12.20;99.90;;;12.29;100.00;100177.91;5143852;28;20133;-80
2023/04/23 04:18:30;;;;;;;12.75;6.53;;;12.20;99.90;;;12.36;100.00;100173.66;5171804;28;20511;-80
2023/04/23 04:21:03;;;;;;;12.38;7.10;;;12.20;99.90;;;12.42;100.00;100173.78;5155553;28;20046;-80
2023/04/23 04:23:36;;;;;;;14.52;7.68;;;12.30;99.90;;;12.45;100.00;100163.34;5179559;28;20077;-80
2023/04/23 04:26:12;;;;;;;15.43;7.70;;;12.30;99.90;;;12.45;100.00;100164.25;5163111;28;20510;-80
2023/04/23 04:28:45;;;;;;;13.15;7.18;;;12.30;99.90;;;12.47;100.00;100156.44;5146914;28;20506;-80
2023/04/23 04:31:19;;;;;;;11.77;6.50;;;12.40;99.90;;;12.48;100.00;100147.75;5147001;28;20042;-82
2023/04/23 04:33:52;;;;;;;13.70;6.78;;;12.40;99.90;;;12.54;100.00;100160.91;5164507;28;20058;-80
2023/04/23 04:36:26;;;;;;;12.70;7.50;;;12.40;99.90;;;12.56;100.00;100166.16;5146596;28;20050;-79
2023/04/23 04:38:58;;;;;;;11.98;6.05;;;12.50;99.90;;;12.59;100.00;100166.22;5162770;28;20092;-78
2023/04/23 04:41:32;;;;;;;12.23;6.43;;;12.50;99.90;;;12.61;100.00;100160.16;5162788;28;20050;-80
2023/04/23 04:44:04;;;;;;;18.48;9.13;;;12.50;99.90;;;12.63;100.00;100158.44;5162924;28;20038;-79
2023/04/23 04:46:39;;;;;;;15.48;8.68;;;12.50;99.90;;;12.66;100.00;100168.09;5146888;28;20061;-80
2023/04/23 04:49:13;;;;;;;14.10;8.82;;;12.60;99.90;;;12.68;100.00;100162.03;5162877;28;20046;-81
2023/04/23 04:51:46;;;;;;;13.85;7.93;;;12.60;99.90;;;12.73;100.00;100170.81;5163968;28;20438;-79
2023/04/23 04:54:18;;;;;;;15.10;8.70;;;12.60;99.90;;;12.77;100.00;100180.47;5164652;28;20046;-81
2023/04/23 04:56:55;;;;;;;11.50;7.10;;;12.70;99.90;;;12.82;100.00;100174.44;5146744;28;20050;-81
2023/04/23 04:59:28;;;;;;;13.82;7.85;;;12.70;99.90;;;12.86;100.00;100181.47;5158599;28;20063;-81
2023/04/23 05:02:01;;;;;;;12.50;7.53;;;12.70;99.90;;;12.88;100.00;100185.00;5162403;28;20137;-80
2023/04/23 05:04:33;;;;;;;13.02;7.05;;;12.80;99.90;;;12.92;100.00;100172.00;5164241;28;20049;-80
2023/04/23 05:07:06;;;;;;;11.60;6.70;;;12.80;99.90;;;12.97;100.00;100192.97;5155671;28;20050;-80
2023/04/23 05:09:40;;;;;;;11.73;6.32;;;12.80;99.90;;;13.02;100.00;100189.56;5159411;28;20046;-80
2023/04/23 05:12:16;;;;;;;11.27;6.40;;;12.90;99.90;;;13.09;100.00;100189.66;5162994;28;20578;-79
2023/04/23 05:14:49;;;;;;;13.25;7.72;;;12.90;99.90;;;13.17;100.00;100196.78;5144745;28;20047;-81
2023/04/23 05:17:22;;;;;;;12.98;7.35;;;13.00;99.90;;;13.19;100.00;100192.44;5143082;28;20483;-81
2023/04/23 05:19:54;;;;;;;12.23;6.78;;;13.00;99.90;;;13.20;100.00;100191.63;5161670;28;20061;-80
2023/04/23 05:22:28;;;;;;;12.07;6.90;;;13.10;99.90;;;13.21;100.00;100188.16;5163645;28;20476;-81
2023/04/23 05:25:01;;;;;;;13.05;6.80;;;13.10;99.90;;;13.23;100.00;100189.03;5178753;28;20410;-80
2023/04/23 05:27:38;;;;;;;12.13;7.35;;;13.10;99.90;;;13.32;100.00;100185.69;5146502;28;20054;-79
2023/04/23 05:30:12;;;;;;;13.65;7.75;;;13.20;99.90;;;13.39;100.00;100184.91;5156267;28;20131;-81
2023/04/23 05:32:46;;;;;;;13.23;7.50;;;13.30;99.90;;;13.42;100.00;100187.56;5145930;28;20145;-81
2023/04/23 05:35:18;;;;;;;12.02;6.93;;;13.30;99.90;;;13.46;100.00;100191.13;5163817;28;20142;-80
2023/04/23 05:37:52;;;;;;;11.40;6.90;;;13.40;99.90;;;13.47;100.00;100182.41;5162137;28;20046;-80
2023/04/23 05:40:25;;;;;;;11.02;6.60;;;13.40;99.90;;;13.50;100.00;100188.56;5163346;28;20038;-79
2023/04/23 05:42:59;;;;;;;10.75;7.07;;;13.40;99.90;;;13.52;100.00;100178.09;5136095;28;20038;-79
2023/04/23 05:45:32;;;;;;;9.80;5.70;;;13.30;99.90;;;13.55;100.00;100183.38;5145303;28;20089;-80
2023/04/23 05:48:04;;;;;;;10.82;6.30;;;13.40;99.90;;;13.60;100.00;100183.44;5154852;28;20053;-80
2023/04/23 05:50:37;;;;;;;12.13;6.47;;;13.50;99.90;;;13.75;100.00;100168.78;5112580;28;20450;-80
2023/04/23 05:53:10;;;;;;;13.27;7.38;;;13.60;99.90;;;13.94;100.00;100172.50;5133339;28;20411;-80
2023/04/23 05:55:43;;;;;;;10.70;6.40;;;13.70;99.90;;;14.12;100.00;100177.06;5158340;28;20078;-80
2023/04/23 05:58:20;;;;;;;11.10;6.57;;;13.90;99.90;;;14.30;100.00;100181.63;5153865;28;20050;-80
2023/04/23 06:00:54;;;;;;;11.93;6.75;;;14.10;99.90;;;14.47;100.00;100179.19;5142426;28;20097;-81
2023/04/23 06:03:26;;;;;;;12.63;6.85;;;14.30;99.90;;;14.74;100.00;100176.81;5145382;28;20058;-81
2023/04/23 06:05:59;;;;;;;11.45;6.88;;;14.40;99.90;;;15.04;100.00;100186.66;5160083;28;20061;-82
2023/04/23 06:08:32;;;;;;;10.23;6.40;;;14.70;99.90;;;15.15;100.00;100178.84;5156753;28;20053;-82
2023/04/23 06:11:05;;;;;;;8.77;5.50;;;14.80;99.90;;;15.16;100.00;100186.75;5160607;28;20499;-82
2023/04/23 06:13:41;;;;;;;8.93;5.60;;;14.90;99.90;;;15.13;100.00;100180.59;5160980;28;20051;-82
2023/04/23 06:16:14;;;;;;;9.98;5.45;;;14.90;99.90;;;15.06;100.00;100190.19;5160763;28;20042;-82
2023/04/23 06:18:46;;;;;;;9.18;5.80;;;14.80;99.90;;;14.95;100.00;100181.34;5142104;28;20055;-81
2023/04/23 06:21:19;;;;;;;10.98;6.75;;;14.80;99.90;;;14.87;100.00;100190.91;5160646;28;20141;-82
2023/04/23 06:23:53;;;;;;;8.82;5.35;;;14.70;99.90;;;14.76;100.00;100184.69;5160618;28;20141;-82
2023/04/23 06:26:26;;;;;;;7.45;4.50;;;14.60;99.90;;;14.69;100.00;100178.53;5140944;28;20414;-81
2023/04/23 06:29:05;;;;;;;8.80;5.95;;;14.50;99.90;;;14.59;100.00;100174.94;5159847;28;20038;-81
2023/04/23 06:31:42;;;;;;;9.63;5.47;;;14.50;99.90;;;14.55;100.00;100169.66;5129588;28;20719;-82
2023/04/23 06:34:15;;;;;;;8.15;5.00;;;14.40;99.90;;;14.54;100.00;100178.38;5161989;28;20030;-82
2023/04/23 06:36:47;;;;;;;8.80;6.00;;;14.40;99.90;;;14.50;100.00;100164.38;5161334;28;20133;-82
2023/04/23 06:39:20;;;;;;;7.93;4.57;;;14.40;99.90;;;14.51;100.00;100178.34;5160410;28;20542;-82
2023/04/23 06:41:53;;;;;;;8.05;4.22;;;14.30;99.90;;;14.52;100.00;100180.97;5141978;28;20391;-82
2023/04/23 06:44:50;;;;;;;7.05;4.43;;;14.30;99.90;;;14.52;100.00;100180.09;5128866;28;20647;-81
2023/04/23 06:47:22;;;;;;;5.50;3.83;;;14.40;99.90;;;14.55;100.00;100180.16;5160449;28;20123;-81
2023/04/23 06:49:55;;;;;;;6.13;3.75;;;14.30;99.90;;;14.57;100.00;100188.91;5159913;28;20054;-82
2023/04/23 06:52:28;;;;;;;5.97;3.97;;;14.30;99.90;;;14.54;100.00;100184.53;5160100;28;20510;-83
2023/04/23 06:55:02;;;;;;;4.82;3.47;;;14.30;99.90;;;14.54;100.00;100178.38;5143939;28;20052;-82
2023/04/23 06:57:34;;;;;;;6.35;3.88;;;14.30;99.90;;;14.53;100.00;100181.88;5161987;28;20533;-79
2023/04/23 07:00:12;;;;;;;5.75;3.70;;;14.30;99.90;;;14.51;100.00;100167.88;5159769;28;20490;-80
2023/04/23 07:02:48;;;;;;;5.25;3.42;;;14.30;99.90;;;14.51;100.00;100163.50;5144638;28;20065;-80
2023/04/23 07:05:20;;;;;;;6.45;3.58;;;14.30;99.90;;;14.53;100.00;100164.38;5160175;28;20050;-81
2023/04/23 07:07:53;;;;;;;5.72;3.63;;;14.30;99.90;;;14.60;100.00;100162.69;5161097;28;20043;-80
2023/04/23 07:10:25;;;;;;;6.38;3.45;;;14.40;99.90;;;14.68;100.00;100161.03;5159817;28;20066;-80
2023/04/23 07:12:58;;;;;;;4.70;2.97;;;14.40;99.90;;;14.76;100.00;100159.34;5160031;28;20061;-79
2023/04/23 07:15:32;;;;;;;9.82;4.95;;;14.50;99.90;;;14.84;100.00;100155.03;5160446;28;20061;-79
2023/04/23 07:18:05;;;;;;;5.03;3.28;;;14.60;99.90;;;14.93;100.00;100157.72;5160511;28;20039;-84
2023/04/23 07:20:38;;;;;;;6.47;3.88;;;14.60;99.90;;;15.07;100.00;100163.06;5162216;28;20124;-82
2023/04/23 07:23:11;;;;;;;4.88;3.33;;;14.70;99.90;;;15.13;100.00;100162.22;5140366;28;20057;-80
2023/04/23 07:25:43;;;;;;;5.75;3.38;;;14.80;99.90;;;15.18;100.00;100150.88;5163846;28;20090;-81
2023/04/23 07:28:16;;;;;;;5.63;3.65;;;14.90;99.90;;;15.23;100.00;100152.66;5163490;28;20052;-82
2023/04/23 07:30:50;;;;;;;4.50;3.22;;;14.90;99.90;;;15.41;100.00;100156.25;5164254;28;20050;-77
2023/04/23 07:33:22;;;;;;;5.40;2.80;;;15.00;99.90;;;15.78;100.00;100159.09;5164639;28;20038;-78
2023/04/23 07:35:54;;;;;;;4.15;2.88;;;15.30;99.90;;;16.31;100.00;100147.81;5145155;28;20054;-77
2023/04/23 07:38:27;;;;;;;4.57;2.85;;;15.80;99.90;;;17.04;100.00;100152.22;5164712;28;20100;-77
2023/04/23 07:41:02;;;;;;;5.18;2.90;;;16.40;99.90;;;17.68;100.00;100145.88;5164067;28;20038;-77
2023/04/23 07:43:34;;;;;;;4.40;2.58;;;16.90;99.90;;;18.19;100.00;100134.19;5164833;28;20101;-77
2023/04/23 07:46:10;;;;;;;4.18;2.67;;;17.40;99.90;;;18.76;98.34;100133.78;5146623;28;20149;-77
2023/04/23 07:48:42;;;;;;;2.45;2.20;;;17.90;99.90;;;19.30;94.72;100144.66;5163219;28;20105;-77
2023/04/23 07:51:14;;;;;;;3.10;2.13;;;18.40;99.90;;;19.69;89.74;100149.53;5164173;28;20125;-77
2023/04/23 07:53:49;;;;;;;3.50;2.22;;;18.80;99.90;;;20.11;87.57;100152.50;5164093;28;20070;-77
2023/04/23 07:56:23;;;;;;;2.78;1.80;;;19.20;99.90;;;20.46;82.59;100148.47;5145957;28;20422;-77
2023/04/23 07:58:57;;;;;;;3.60;2.00;;;19.60;98.90;;;20.50;82.93;100145.75;5151580;28;20133;-77
2023/04/23 08:01:32;;;;;;;3.22;1.98;;;19.70;98.70;;;20.51;81.55;100157.22;5160590;28;20206;-76
2023/04/23 08:04:05;;;;;;;2.25;2.05;;;19.70;97.80;;;20.32;81.82;100157.47;5162568;28;20050;-76
2023/04/23 08:06:37;;;;;;;2.85;2.00;;;19.60;97.50;;;20.19;82.45;100153.25;5147183;28;20487;-76
2023/04/23 08:09:11;;;;;;;2.80;1.60;;;19.50;97.70;;;20.11;81.10;100147.19;5164143;28;20173;-77
2023/04/23 08:11:47;;;;;;;3.53;2.03;;;19.40;96.90;;;19.90;82.42;100147.50;5163744;28;20046;-78
2023/04/23 08:14:19;;;;;;;2.60;1.70;;;19.20;97.30;;;19.86;83.43;100145.78;5162912;28;20065;-76
2023/04/23 08:16:53;;;;;;;2.60;1.60;;;19.10;97.80;;;19.94;83.54;100144.78;5154803;28;20443;-77
2023/04/23 08:19:30;;;;;;;3.03;2.05;;;19.20;98.10;;;20.64;83.47;100144.66;5145825;28;20054;-76
2023/04/23 08:22:06;;;;;;;7.50;2.70;;;19.50;98.70;;;21.33;79.21;100142.56;5163710;28;20053;-77
2023/04/23 08:24:38;;;;;;;3.70;1.95;;;19.90;97.20;;;21.23;78.92;100146.22;5164173;28;20124;-77
2023/04/23 08:27:12;;;;;;;2.67;1.90;;;20.00;96.60;;;20.77;79.86;100133.81;5152913;28;20446;-77
2023/04/23 08:29:44;;;;;;;2.00;1.80;;;19.80;96.40;;;20.38;81.24;100139.75;5140725;28;20514;-80
2023/04/23 08:32:18;;;;;;;4.30;1.80;;;19.60;96.60;;;20.05;82.26;100132.28;5130515;28;20128;-81
2023/04/23 08:34:51;;;;;;;2.63;2.30;;;19.40;96.90;;;20.00;83.22;100130.59;5148209;28;20431;-81
2023/04/23 08:37:23;;;;;;;2.78;2.10;;;19.20;97.50;;;19.73;83.68;100138.00;5153852;28;20113;-81
2023/04/23 08:39:56;;;;;;;3.58;2.20;;;19.10;97.70;;;19.30;84.91;100135.00;5155942;28;20046;-81
2023/04/23 08:42:42;;;;;;;3.38;2.42;;;18.80;98.10;;;18.85;86.25;100136.34;5162391;28;20116;-81
2023/04/23 08:45:15;;;;;;;2.97;2.22;;;18.40;98.60;;;18.55;87.83;100133.03;5162635;28;20047;-81
2023/04/23 08:47:50;;;;;;;2.83;2.35;;;18.20;99.30;;;18.32;89.11;100134.97;5163751;28;20046;-81
2023/04/23 08:50:23;;;;;;;3.28;2.08;;;17.90;99.90;;;18.21;89.81;100126.28;5145465;28;20077;-78
2023/04/23 08:53:02;;;;;;;3.20;2.00;;;17.80;99.90;;;18.14;90.47;100126.31;5154974;28;20050;-80
2023/04/23 08:55:35;;;;;;;3.20;2.35;;;17.70;99.90;;;18.41;91.04;100112.03;5123046;28;20414;-79
2023/04/23 08:58:08;;;;;;;3.08;1.90;;;17.80;99.90;;;19.15;89.60;100125.44;5169024;28;20038;-79
2023/04/23 09:00:41;;;;;;;2.60;2.10;;;18.20;99.90;;;20.37;87.13;100124.75;5145814;28;20054;-79
2023/04/23 09:03:16;;;;;;;2.83;1.88;;;18.90;99.90;;;21.63;80.88;100121.59;5163442;28;20509;-80
2023/04/23 09:05:52;;;;;;;2.63;1.50;;;19.80;99.30;;;22.53;77.19;100116.03;5159898;28;20395;-79
2023/04/23 09:08:24;;;;;;;3.35;1.75;;;20.60;97.20;;;23.41;73.35;100108.38;5163514;28;20057;-80
2023/04/23 09:11:01;;;;;;;2.70;1.60;;;21.40;95.00;;;23.89;68.52;100114.97;5142618;28;20136;-79
2023/04/23 09:13:35;;;;;;;3.28;1.50;;;21.90;91.10;;;23.10;67.97;100113.69;5162724;28;20135;-80
2023/04/23 09:16:09;;;;;;;1.83;1.52;;;21.80;88.20;;;22.50;70.42;100106.38;5161443;28;20050;-80
2023/04/23 09:18:42;;;;;;;5.10;1.80;;;21.40;88.90;;;22.05;70.31;100103.00;5162947;28;20050;-80
2023/04/23 09:21:15;;;;;;;2.40;1.60;;;21.10;87.80;;;21.72;70.83;100110.81;5161524;28;20455;-81
2023/04/23 09:23:51;;;;;;;3.10;1.90;;;20.90;88.00;;;21.43;73.20;100095.50;5158105;28;20089;-75
2023/04/23 09:26:24;;;;;;;2.67;1.88;;;20.70;90.10;;;21.39;73.15;100096.50;5162822;28;20141;-79
2023/04/23 09:28:57;;;;;;;2.30;1.48;;;20.60;90.20;;;21.21;71.92;100092.38;5161465;28;20061;-86
2023/04/23 09:31:30;;;;;;;3.38;1.60;;;20.60;88.40;;;21.21;72.98;100086.22;5145282;28;20525;-81
2023/04/23 09:34:07;;;;;;;2.17;1.73;;;20.50;89.30;;;21.39;72.74;100078.81;5162289;28;20053;-80
2023/04/23 09:36:39;;;;;;;1.88;1.33;;;20.60;89.80;;;21.55;70.59;100086.44;5137664;28;20290;-79
2023/04/23 09:39:13;;;;;;;3.80;1.67;;;20.70;87.00;;;21.58;69.37;100083.69;5162247;28;20044;-80
2023/04/23 09:41:46;;;;;;;2.92;1.40;;;20.80;85.00;;;21.47;69.56;100077.78;5161358;28;20046;-79
2023/04/23 09:44:21;;;;;;;5.32;2.05;;;20.80;84.60;;;21.33;70.19;100081.59;5152424;28;20046;-79
2023/04/23 09:46:53;;;;;;;1.90;1.40;;;20.70;85.10;;;21.31;70.38;100071.91;5162515;28;20133;-79
2023/04/23 09:49:29;;;;;;;2.40;1.42;;;20.70;85.10;;;21.31;70.20;100067.47;5160780;28;20069;-78
2023/04/23 09:52:07;;;;;;;3.65;1.42;;;20.70;85.00;;;21.24;69.77;100065.81;5160995;28;20136;-78
2023/04/23 09:54:39;;;;;;;2.17;1.35;;;20.60;84.10;;;21.19;70.20;100066.81;5162390;28;20085;-79
2023/04/23 09:57:12;;;;;;;1.45;1.13;;;20.60;84.50;;;21.27;69.81;100071.06;5160812;28;20383;-78
2023/04/23 09:59:46;;;;;;;4.72;1.40;;;20.60;84.10;;;21.33;69.02;100064.81;5161722;28;20059;-79
2023/04/23 10:02:20;;;;;;;3.67;1.25;;;20.60;83.40;;;21.21;69.58;100060.59;5162162;28;20042;-80
2023/04/23 10:04:55;;;;;;;3.15;1.10;;;20.50;83.40;;;21.08;70.51;100056.44;5167037;23;20475;-55
2023/04/23 10:07:28;;;;;;;1.95;1.25;;;20.50;84.20;;;21.06;68.45;100056.47;5141905;28;20050;-55
2023/04/23 10:10:00;;;;;;;2.58;1.23;;;20.40;81.90;;;21.03;68.04;100067.13;5136146;28;20051;-56
2023/04/23 10:12:32;;;;;;;2.63;1.25;;;20.40;81.40;;;21.04;68.47;100062.69;5144256;28;20530;-54
2023/04/23 10:15:06;;;;;;;1.65;0.90;;;20.40;81.90;;;21.18;68.92;100057.97;5144095;28;20046;-55
2023/04/23 10:17:39;;;;;;;2.20;1.10;;;20.40;82.70;;;21.36;66.79;100055.00;5150398;28;20070;-55
2023/04/23 10:20:13;;;;;;;2.47;1.20;;;20.60;80.10;;;21.40;65.69;100056.69;5144069;28;20047;-55
2023/04/23 10:22:46;;;;;;;1.60;1.02;;;20.70;78.50;;;21.32;64.97;100053.34;5143664;28;20062;-56
2023/04/23 10:25:21;;;;;;;1.35;1.00;;;20.60;77.40;;;21.16;65.54;100056.28;5143820;28;20117;-56
2023/04/23 10:27:55;;;;;;;2.25;1.08;;;20.50;77.60;;;21.14;65.44;100053.66;5142591;28;20603;-56
2023/04/23 10:30:28;;;;;;;0.90;0.90;;;20.50;77.60;;;21.20;66.09;100053.53;5136098;28;20051;-55